createdAt,value
2022-11-05T00:00:37.598Z,82.90
2022-11-05T00:03:25.324Z,83.10
2022-11-05T00:06:12.312Z,82.90
2022-11-05T00:08:59.170Z,83.00
2022-11-05T00:11:45.873Z,82.90
2022-11-05T00:14:32.914Z,83.00
2022-11-05T00:16:59.671Z,82.90
2022-11-05T00:19:26.370Z,83.00
2022-11-05T00:22:11.775Z,83.00
2022-11-05T00:24:57.358Z,83.10
2022-11-05T00:27:24.120Z,83.10
2022-11-05T00:29:50.938Z,83.10
2022-11-05T00:32:17.683Z,83.10
2022-11-05T00:34:44.363Z,83.20
2022-11-05T00:37:11.084Z,83.20
2022-11-05T00:39:37.841Z,83.10
2022-11-05T00:42:23.187Z,83.20
2022-11-05T00:45:02.392Z,83.30
2022-11-05T00:47:52.203Z,83.30
2022-11-05T00:50:21.040Z,83.30
2022-11-05T00:52:55.709Z,83.40
2022-11-05T00:55:28.274Z,83.30
2022-11-05T00:57:55.567Z,83.40
2022-11-05T01:00:23.887Z,83.30
2022-11-05T01:02:50.750Z,83.40
2022-11-05T01:05:17.669Z,83.40
2022-11-05T01:07:44.409Z,83.50
2022-11-05T01:10:11.252Z,83.50
2022-11-05T01:12:37.972Z,83.50
2022-11-05T01:15:07.633Z,83.50
2022-11-05T01:17:34.331Z,83.50
2022-11-05T01:20:01.433Z,83.60
2022-11-05T01:22:28.263Z,83.70
2022-11-05T01:24:55.092Z,83.70
2022-11-05T01:27:22.053Z,83.70
2022-11-05T01:29:48.757Z,83.70
2022-11-05T01:32:15.489Z,83.70
2022-11-05T01:34:42.307Z,83.80
2022-11-05T01:37:09.046Z,83.70
2022-11-05T01:39:35.706Z,83.80
2022-11-05T01:42:02.760Z,83.80
2022-11-05T01:45:12.523Z,83.90
2022-11-05T01:48:02.750Z,83.90
2022-11-05T01:50:44.623Z,84.00
2022-11-05T01:53:14.257Z,83.90
2022-11-05T01:56:16.864Z,83.90
2022-11-05T01:58:43.629Z,83.90
2022-11-05T02:01:11.167Z,84.00
2022-11-05T02:03:38.448Z,84.10
2022-11-05T02:06:09.372Z,84.10
2022-11-05T02:09:00.384Z,84.00
2022-11-05T02:11:27.087Z,83.90
2022-11-05T02:13:53.950Z,84.10
2022-11-05T02:16:29.277Z,84.10
2022-11-05T02:19:23.634Z,84.20
2022-11-05T02:22:21.085Z,84.10
2022-11-05T02:24:56.358Z,84.10
2022-11-05T02:27:31.195Z,84.20
2022-11-05T02:30:16.614Z,84.30
2022-11-05T02:33:06.438Z,84.20
2022-11-05T02:36:07.354Z,84.20
2022-11-05T02:38:55.147Z,84.10
2022-11-05T02:41:51.228Z,84.30
2022-11-05T02:44:40.185Z,84.20
2022-11-05T02:47:21.818Z,84.30
2022-11-05T02:50:18.334Z,84.40
2022-11-05T02:53:33.287Z,84.30
2022-11-05T02:56:05.802Z,84.10
2022-11-05T02:58:35.466Z,84.30
2022-11-05T03:01:06.824Z,84.40
2022-11-05T03:03:53.620Z,84.40
2022-11-05T03:06:35.276Z,84.40
2022-11-05T03:09:13.882Z,84.40
2022-11-05T03:11:54.878Z,84.50
2022-11-05T03:14:33.913Z,84.50
2022-11-05T03:17:07.109Z,84.60
2022-11-05T03:19:57.001Z,84.50
2022-11-05T03:22:28.683Z,84.60
2022-11-05T03:25:00.461Z,84.60
2022-11-05T03:27:31.528Z,84.70
2022-11-05T03:30:05.533Z,84.70
2022-11-05T03:32:36.412Z,84.60
2022-11-05T03:35:11.229Z,84.60
2022-11-05T03:37:41.418Z,84.70
2022-11-05T03:40:12.086Z,84.70
2022-11-05T03:42:42.943Z,84.70
2022-11-05T03:45:14.870Z,84.60
2022-11-05T03:47:44.210Z,84.80
2022-11-05T03:50:27.467Z,84.80
2022-11-05T03:53:00.193Z,84.80
2022-11-05T03:55:35.473Z,84.80
2022-11-05T03:58:05.209Z,84.90
2022-11-05T04:00:32.474Z,84.90
2022-11-05T04:03:01.852Z,84.90
2022-11-05T04:05:28.674Z,84.90
2022-11-05T04:08:14.645Z,84.90
2022-11-05T04:11:00.008Z,85.00
2022-11-05T04:13:27.717Z,85.00
2022-11-05T04:16:14.431Z,85.00
2022-11-05T04:18:44.731Z,85.10
2022-11-05T04:21:30.581Z,85.00
2022-11-05T04:24:09.956Z,85.10
2022-11-05T04:26:43.648Z,85.10
2022-11-05T04:29:29.283Z,85.10
2022-11-05T04:31:56.640Z,85.10
2022-11-05T04:34:23.534Z,85.20
2022-11-05T04:36:53.309Z,85.20
2022-11-05T04:39:20.932Z,85.20
2022-11-05T04:41:50.404Z,85.20
2022-11-05T04:44:17.388Z,85.30
2022-11-05T04:46:44.076Z,85.30
2022-11-05T04:49:13.249Z,85.30
2022-11-05T04:51:40.003Z,85.30
2022-11-05T04:54:06.889Z,85.30
2022-11-05T04:56:33.766Z,85.40
2022-11-05T04:59:00.515Z,85.30
2022-11-05T05:01:27.444Z,85.30
2022-11-05T05:03:55.650Z,85.50
2022-11-05T05:06:22.628Z,85.60
2022-11-05T05:08:51.171Z,85.60
2022-11-05T05:11:20.327Z,85.60
2022-11-05T05:13:50.278Z,85.70
2022-11-05T05:16:21.496Z,85.80
2022-11-05T05:18:49.219Z,85.80
2022-11-05T05:21:44.236Z,85.60
2022-11-05T05:24:18.601Z,85.60
2022-11-05T05:26:50.218Z,85.70
2022-11-05T05:29:18.080Z,85.60
2022-11-05T05:31:44.935Z,85.60
2022-11-05T05:34:13.152Z,85.60
2022-11-05T05:36:39.987Z,85.60
2022-11-05T05:39:07.548Z,85.60
2022-11-05T05:41:34.715Z,86.40
2022-11-05T05:44:01.512Z,85.70
2022-11-05T05:46:30.860Z,85.70
2022-11-05T05:49:00.290Z,85.70
2022-11-05T05:51:34.034Z,85.60
2022-11-05T05:54:00.704Z,85.60
2022-11-05T05:56:27.478Z,85.60
2022-11-05T05:58:54.776Z,85.60
2022-11-05T06:01:21.837Z,85.70
2022-11-05T06:03:49.403Z,85.70
2022-11-05T06:06:21.034Z,85.80
2022-11-05T06:08:53.097Z,85.80
2022-11-05T06:11:19.886Z,85.70
2022-11-05T06:13:46.553Z,85.70
2022-11-05T06:16:16.442Z,85.70
2022-11-05T06:18:43.145Z,85.80
2022-11-05T06:21:12.379Z,85.80
2022-11-05T06:23:40.358Z,85.80
2022-11-05T06:26:12.305Z,85.80
2022-11-05T06:28:39.418Z,85.90
2022-11-05T06:31:06.366Z,85.80
2022-11-05T06:33:33.102Z,85.80
2022-11-05T06:36:04.533Z,85.90
2022-11-05T06:38:36.142Z,85.90
2022-11-05T06:41:09.810Z,85.90
2022-11-05T06:43:37.128Z,85.90
2022-11-05T06:46:05.752Z,86.00
2022-11-05T06:48:32.476Z,86.10
2022-11-05T06:50:59.234Z,86.10
2022-11-05T06:53:26.090Z,86.10
2022-11-05T06:55:52.790Z,86.10
2022-11-05T06:58:19.702Z,86.10
2022-11-05T07:00:47.101Z,86.10
2022-11-05T07:03:16.815Z,86.20
2022-11-05T07:05:47.888Z,86.20
2022-11-05T07:08:15.114Z,86.30
2022-11-05T07:10:41.799Z,86.20
2022-11-05T07:13:09.209Z,86.30
2022-11-05T07:15:37.302Z,86.30
2022-11-05T07:18:05.225Z,86.30
2022-11-05T07:20:34.141Z,86.30
2022-11-05T07:23:06.184Z,86.30
2022-11-05T07:25:34.109Z,86.30
2022-11-05T07:28:01.521Z,86.30
2022-11-05T07:30:29.075Z,86.20
2022-11-05T07:32:55.814Z,86.30
2022-11-05T07:35:23.075Z,86.30
2022-11-05T07:37:51.517Z,86.30
2022-11-05T07:40:19.522Z,86.40
2022-11-05T07:42:48.303Z,86.40
2022-11-05T07:45:15.222Z,86.40
2022-11-05T07:48:04.748Z,86.30
2022-11-05T07:50:33.961Z,86.40
2022-11-05T07:53:21.535Z,86.40
2022-11-05T07:55:48.272Z,86.30
2022-11-05T07:58:15.065Z,86.30
2022-11-05T08:00:45.036Z,86.20
2022-11-05T08:03:17.129Z,86.20
2022-11-05T08:05:46.886Z,86.20
2022-11-05T08:08:16.435Z,86.20
2022-11-05T08:10:43.688Z,86.70
2022-11-05T08:13:13.955Z,88.30
2022-11-05T08:15:42.256Z,87.00
2022-11-05T08:18:17.006Z,85.50
2022-11-05T08:20:44.712Z,83.60
2022-11-05T08:23:12.123Z,81.60
2022-11-05T08:25:39.904Z,79.60
2022-11-05T08:28:12.843Z,77.90
2022-11-05T08:30:41.824Z,76.90
2022-11-05T08:33:11.128Z,75.30
2022-11-05T08:35:39.250Z,74.30
2022-11-05T08:38:08.042Z,73.30
2022-11-05T08:40:36.566Z,72.60
2022-11-05T08:43:05.481Z,72.10
2022-11-05T08:45:34.851Z,72.00
2022-11-05T08:48:07.770Z,72.00
2022-11-05T08:50:34.893Z,72.40
2022-11-05T08:53:01.748Z,73.00
2022-11-05T08:55:31.809Z,73.80
2022-11-05T08:58:00.037Z,74.30
2022-11-05T09:00:28.886Z,74.70
2022-11-05T09:02:58.228Z,75.40
2022-11-05T09:05:24.898Z,76.10
2022-11-05T09:07:57.874Z,76.80
2022-11-05T09:10:28.389Z,77.10
2022-11-05T09:12:57.325Z,77.40
2022-11-05T09:15:24.546Z,77.80
2022-11-05T09:17:51.414Z,78.00
2022-11-05T09:20:18.714Z,78.10
2022-11-05T09:22:46.518Z,78.40
2022-11-05T09:25:15.209Z,78.30
2022-11-05T09:27:42.428Z,78.30
2022-11-05T09:30:10.777Z,78.40
2022-11-05T09:32:37.499Z,78.70
2022-11-05T09:35:05.260Z,78.70
2022-11-05T09:37:32.640Z,78.60
2022-11-05T09:39:59.444Z,78.40
2022-11-05T09:42:34.749Z,78.50
2022-11-05T09:45:11.121Z,78.60
2022-11-05T09:47:43.795Z,78.70
2022-11-05T09:50:18.934Z,78.60
2022-11-05T09:52:46.125Z,78.60
2022-11-05T09:55:37.268Z,78.60
2022-11-05T09:58:13.699Z,78.70
2022-11-05T10:00:41.788Z,78.60
2022-11-05T10:03:15.375Z,78.00
2022-11-05T10:05:42.797Z,77.90
2022-11-05T10:08:25.336Z,77.70
2022-11-05T10:10:56.621Z,77.60
2022-11-05T10:13:50.576Z,77.70
2022-11-05T10:16:24.899Z,77.50
2022-11-05T10:19:04.001Z,77.40
2022-11-05T10:21:59.510Z,77.70
2022-11-05T10:24:21.101Z,77.70
2022-11-05T10:26:50.700Z,77.80
2022-11-05T10:29:30.242Z,77.70
2022-11-05T10:31:59.486Z,77.70
2022-11-05T10:34:30.619Z,77.80
2022-11-05T10:36:57.581Z,77.70
2022-11-05T10:39:27.673Z,77.50
2022-11-05T10:42:19.197Z,77.50
2022-11-05T10:45:20.923Z,77.40
2022-11-05T10:48:46.742Z,77.40
2022-11-05T10:51:15.139Z,77.50
2022-11-05T10:53:56.063Z,77.50
2022-11-05T10:56:37.049Z,77.30
2022-11-05T10:59:18.906Z,77.20
2022-11-05T11:01:46.642Z,77.30
2022-11-05T11:04:22.707Z,77.30
2022-11-05T11:06:52.062Z,77.30
2022-11-05T11:09:25.615Z,77.30
2022-11-05T11:12:05.661Z,77.30
2022-11-05T11:14:34.941Z,77.10
2022-11-05T11:17:26.669Z,77.20
2022-11-05T11:20:28.329Z,77.30
2022-11-05T11:23:14.556Z,77.30
2022-11-05T11:25:58.802Z,77.10
2022-11-05T11:28:40.448Z,77.10
2022-11-05T11:31:16.553Z,77.00
2022-11-05T11:33:50.947Z,77.00
2022-11-05T11:36:24.290Z,77.00
2022-11-05T11:38:51.310Z,77.20
2022-11-05T11:41:28.480Z,77.40
2022-11-05T11:44:01.501Z,77.00
2022-11-05T11:46:32.286Z,76.80
2022-11-05T11:48:59.933Z,76.40
2022-11-05T11:51:40.654Z,76.40
2022-11-05T11:54:28.880Z,76.30
2022-11-05T11:56:56.156Z,76.10
2022-11-05T11:59:53.772Z,75.60
2022-11-05T12:02:41.708Z,75.10
2022-11-05T12:05:22.313Z,74.90
2022-11-05T12:07:53.231Z,74.60
2022-11-05T12:10:23.166Z,73.70
2022-11-05T12:13:09.059Z,73.60
2022-11-05T12:16:01.937Z,73.50
2022-11-05T12:19:01.582Z,73.50
2022-11-05T12:21:58.150Z,73.30
2022-11-05T12:24:49.005Z,73.20
2022-11-05T12:27:35.495Z,72.70
2022-11-05T12:30:04.224Z,73.10
2022-11-05T12:32:41.355Z,73.40
2022-11-05T12:35:35.043Z,73.20
2022-11-05T12:38:29.566Z,73.30
2022-11-05T12:41:18.923Z,73.10
2022-11-05T12:43:56.861Z,73.30
2022-11-05T12:46:47.765Z,74.10
2022-11-05T12:49:14.470Z,73.10
2022-11-05T12:52:05.238Z,73.10
2022-11-05T12:54:44.419Z,72.70
2022-11-05T12:57:13.944Z,72.50
2022-11-05T12:59:51.774Z,72.80
2022-11-05T13:02:27.277Z,73.00
2022-11-05T13:05:15.541Z,73.00
2022-11-05T13:08:00.320Z,72.60
2022-11-05T13:10:52.531Z,72.80
2022-11-05T13:13:32.391Z,72.60
2022-11-05T13:16:12.229Z,72.60
2022-11-05T13:18:52.503Z,72.70
2022-11-05T13:21:24.105Z,72.60
2022-11-05T13:24:17.861Z,72.60
2022-11-05T13:27:15.091Z,72.40
2022-11-05T13:29:44.707Z,72.50
2022-11-05T13:32:26.302Z,72.70
2022-11-05T13:34:56.471Z,72.50
2022-11-05T13:37:48.765Z,73.30
2022-11-05T13:40:18.993Z,72.50
2022-11-05T13:42:45.654Z,73.30
2022-11-05T13:45:18.173Z,72.50
2022-11-05T13:48:06.623Z,72.40
2022-11-05T13:51:11.496Z,71.40
2022-11-05T13:54:05.183Z,72.10
2022-11-05T13:56:43.863Z,72.20
2022-11-05T13:59:48.960Z,72.10
2022-11-05T14:02:15.788Z,71.90
2022-11-05T14:04:47.811Z,72.10
2022-11-05T14:07:34.388Z,72.10
2022-11-05T14:10:30.802Z,72.00
2022-11-05T14:13:01.606Z,71.90
2022-11-05T14:15:30.179Z,71.90
2022-11-05T14:18:00.201Z,72.10
2022-11-05T14:20:46.403Z,72.10
2022-11-05T14:23:25.126Z,71.90
2022-11-05T14:25:56.680Z,72.00
2022-11-05T14:28:39.744Z,72.90
2022-11-05T14:31:21.146Z,72.00
2022-11-05T14:34:11.268Z,72.00
2022-11-05T14:36:46.341Z,72.10
2022-11-05T14:39:25.062Z,72.20
2022-11-05T14:42:15.338Z,72.30
2022-11-05T14:45:06.551Z,72.20
2022-11-05T14:47:41.786Z,72.30
2022-11-05T14:50:29.849Z,72.30
2022-11-05T14:53:00.982Z,72.40
2022-11-05T14:55:34.845Z,72.60
2022-11-05T14:58:06.914Z,72.60
2022-11-05T15:00:36.685Z,72.50
2022-11-05T15:03:24.401Z,72.40
2022-11-05T15:05:52.434Z,72.50
2022-11-05T15:08:37.331Z,72.70
2022-11-05T15:11:13.894Z,72.70
2022-11-05T15:14:19.429Z,72.70
2022-11-05T15:16:55.167Z,72.60
2022-11-05T15:19:32.351Z,72.60
2022-11-05T15:22:05.761Z,72.60
2022-11-05T15:24:33.919Z,72.60
2022-11-05T15:27:14.558Z,72.70
2022-11-05T15:29:42.982Z,72.80
2022-11-05T15:32:22.908Z,72.80
2022-11-05T15:34:55.696Z,72.90
2022-11-05T15:37:27.249Z,73.00
2022-11-05T15:39:55.440Z,73.10
2022-11-05T15:42:29.523Z,73.10
2022-11-05T15:44:58.320Z,73.20
2022-11-05T15:47:48.522Z,73.30
2022-11-05T15:50:16.177Z,73.40
2022-11-05T15:52:53.926Z,73.40
2022-11-05T15:55:25.660Z,73.50
2022-11-05T15:57:58.807Z,73.40
2022-11-05T16:00:27.785Z,73.60
2022-11-05T16:03:02.139Z,73.60
2022-11-05T16:05:41.676Z,73.70
2022-11-05T16:08:24.987Z,73.70
2022-11-05T16:10:55.414Z,73.90
2022-11-05T16:13:34.302Z,73.70
2022-11-05T16:16:06.833Z,73.80
2022-11-05T16:18:37.801Z,73.80
2022-11-05T16:21:08.535Z,73.90
2022-11-05T16:24:05.233Z,73.90
2022-11-05T16:27:01.198Z,73.90
2022-11-05T16:29:29.297Z,73.90
2022-11-05T16:31:57.502Z,74.00
2022-11-05T16:34:43.882Z,74.10
2022-11-05T16:37:16.302Z,74.00
2022-11-05T16:39:43.069Z,74.20
2022-11-05T16:42:24.929Z,74.20
2022-11-05T16:44:53.086Z,74.20
2022-11-05T16:47:20.823Z,74.10
2022-11-05T16:49:48.673Z,75.00
2022-11-05T16:52:15.966Z,74.30
2022-11-05T16:54:42.926Z,74.30
2022-11-05T16:57:25.376Z,74.30
2022-11-05T16:59:53.282Z,74.30
2022-11-05T17:02:20.598Z,74.40
2022-11-05T17:04:48.513Z,74.40
2022-11-05T17:07:15.246Z,74.60
2022-11-05T17:09:42.076Z,74.40
2022-11-05T17:12:13.502Z,74.50
2022-11-05T17:14:40.704Z,74.60
2022-11-05T17:17:07.526Z,74.60
2022-11-05T17:19:34.571Z,74.60
2022-11-05T17:22:01.358Z,74.70
2022-11-05T17:24:28.175Z,74.70
2022-11-05T17:26:54.968Z,74.70
2022-11-05T17:29:21.731Z,74.70
2022-11-05T17:31:49.058Z,74.70
2022-11-05T17:34:15.891Z,74.80
2022-11-05T17:36:42.700Z,74.90
2022-11-05T17:39:11.025Z,75.00
2022-11-05T17:41:37.814Z,75.00
2022-11-05T17:44:04.676Z,75.00
2022-11-05T17:46:31.493Z,75.10
2022-11-05T17:48:58.586Z,75.10
2022-11-05T17:51:27.790Z,75.10
2022-11-05T17:53:54.595Z,75.10
2022-11-05T17:56:32.561Z,75.10
2022-11-05T17:59:01.095Z,75.30
2022-11-05T18:01:30.729Z,75.20
2022-11-05T18:03:57.821Z,75.20
2022-11-05T18:06:24.641Z,75.20
2022-11-05T18:08:51.533Z,75.30
2022-11-05T18:11:18.430Z,75.40
2022-11-05T18:13:48.043Z,75.30
2022-11-05T18:16:14.829Z,75.40
2022-11-05T18:18:41.545Z,75.50
2022-11-05T18:21:08.364Z,75.30
2022-11-05T18:23:35.142Z,75.40
2022-11-05T18:26:01.942Z,75.40
2022-11-05T18:28:32.077Z,75.40
2022-11-05T18:30:58.925Z,75.40
2022-11-05T18:33:25.784Z,75.40
2022-11-05T18:35:52.500Z,75.40
2022-11-05T18:38:19.321Z,75.40
2022-11-05T18:40:46.160Z,75.40
2022-11-05T18:43:16.183Z,75.40
2022-11-05T18:45:42.938Z,75.50
2022-11-05T18:48:10.427Z,75.40
2022-11-05T18:50:39.941Z,75.40
2022-11-05T18:53:06.668Z,75.40
2022-11-05T18:55:33.375Z,75.40
2022-11-05T18:58:00.033Z,75.40
2022-11-05T19:00:28.042Z,75.50
2022-11-05T19:02:55.032Z,75.50
2022-11-05T19:05:29.144Z,75.50
2022-11-05T19:07:56.602Z,75.60
2022-11-05T19:10:23.379Z,75.60
2022-11-05T19:12:50.159Z,75.50
2022-11-05T19:15:17.466Z,75.60
2022-11-05T19:17:44.467Z,75.60
2022-11-05T19:20:14.298Z,75.60
2022-11-05T19:22:40.977Z,75.60
2022-11-05T19:25:08.141Z,75.70
2022-11-05T19:27:36.730Z,75.70
2022-11-05T19:30:05.317Z,75.70
2022-11-05T19:32:34.134Z,75.80
2022-11-05T19:35:00.821Z,75.70
2022-11-05T19:37:27.610Z,75.80
2022-11-05T19:39:55.047Z,75.80
2022-11-05T19:42:21.799Z,75.80
2022-11-05T19:44:48.613Z,75.90
2022-11-05T19:47:15.463Z,75.90
2022-11-05T19:49:42.182Z,75.90
2022-11-05T19:52:08.934Z,76.00
2022-11-05T19:54:36.057Z,76.10
2022-11-05T19:57:03.052Z,76.10
2022-11-05T19:59:32.283Z,76.20
2022-11-05T20:01:59.232Z,76.30
2022-11-05T20:04:26.043Z,76.30
2022-11-05T20:06:53.107Z,76.30
2022-11-05T20:09:22.026Z,76.40
2022-11-05T20:11:54.393Z,76.40
2022-11-05T20:14:22.341Z,76.30
2022-11-05T20:16:50.006Z,76.40
2022-11-05T20:19:19.705Z,76.60
2022-11-05T20:21:46.963Z,76.50
2022-11-05T20:24:20.622Z,76.60
2022-11-05T20:26:51.082Z,76.50
2022-11-05T20:29:17.947Z,76.50
2022-11-05T20:31:45.808Z,76.50
2022-11-05T20:34:12.574Z,76.60
2022-11-05T20:36:39.963Z,76.60
2022-11-05T20:39:07.118Z,76.80
2022-11-05T20:41:34.163Z,76.90
2022-11-05T20:44:01.049Z,76.70
2022-11-05T20:46:28.162Z,76.80
2022-11-05T20:48:55.128Z,76.90
2022-11-05T20:51:24.395Z,76.80
2022-11-05T20:53:55.669Z,77.00
2022-11-05T20:56:29.594Z,76.90
2022-11-05T20:58:58.434Z,77.80
2022-11-05T21:01:26.873Z,76.90
2022-11-05T21:03:53.899Z,76.80
2022-11-05T21:06:20.628Z,76.90
2022-11-05T21:08:48.888Z,77.00
2022-11-05T21:11:16.484Z,77.10
2022-11-05T21:13:43.262Z,77.00
2022-11-05T21:16:15.441Z,77.10
2022-11-05T21:18:45.187Z,77.00
2022-11-05T21:21:15.703Z,77.00
2022-11-05T21:23:43.007Z,76.90
2022-11-05T21:26:13.507Z,77.00
2022-11-05T21:28:41.389Z,77.00
2022-11-05T21:31:10.240Z,77.00
2022-11-05T21:33:37.407Z,77.10
2022-11-05T21:36:12.438Z,77.10
2022-11-05T21:38:40.014Z,77.20
2022-11-05T21:41:07.409Z,77.20
2022-11-05T21:43:34.488Z,77.30
2022-11-05T21:46:05.325Z,77.30
2022-11-05T21:48:32.648Z,77.50
2022-11-05T21:51:17.966Z,77.50
2022-11-05T21:54:03.446Z,77.40
2022-11-05T21:56:48.919Z,77.40
2022-11-05T21:59:36.859Z,77.40
2022-11-05T22:02:04.515Z,77.50
2022-11-05T22:04:36.502Z,77.70
2022-11-05T22:07:04.434Z,77.80
2022-11-05T22:09:34.837Z,77.60
2022-11-05T22:12:02.287Z,77.70
2022-11-05T22:14:29.486Z,77.60
2022-11-05T22:16:57.363Z,78.00
2022-11-05T22:19:27.255Z,78.00
2022-11-05T22:21:54.415Z,77.90
2022-11-05T22:24:21.262Z,77.80
2022-11-05T22:26:48.121Z,77.80
2022-11-05T22:29:15.663Z,77.80
2022-11-05T22:31:42.966Z,78.00
2022-11-05T22:34:10.621Z,77.90
2022-11-05T22:36:37.610Z,78.00
2022-11-05T22:39:05.336Z,78.10
2022-11-05T22:41:32.166Z,78.00
2022-11-05T22:43:58.985Z,78.00
2022-11-05T22:46:26.978Z,78.00
2022-11-05T22:48:54.394Z,78.00
2022-11-05T22:51:29.487Z,78.00
2022-11-05T22:54:03.249Z,78.20
2022-11-05T22:56:33.024Z,78.10
2022-11-05T22:59:00.016Z,78.10
2022-11-05T23:01:27.198Z,78.20
2022-11-05T23:03:56.262Z,78.30
2022-11-05T23:06:44.262Z,78.20
2022-11-05T23:09:50.559Z,78.20
2022-11-05T23:12:21.805Z,78.30
2022-11-05T23:14:51.311Z,78.10
2022-11-05T23:17:36.743Z,78.20
2022-11-05T23:20:23.126Z,78.20
2022-11-05T23:23:11.574Z,78.20
2022-11-05T23:25:38.278Z,78.40
2022-11-05T23:28:09.880Z,78.20
2022-11-05T23:31:01.353Z,78.20
2022-11-05T23:33:29.181Z,79.10
2022-11-05T23:36:14.727Z,78.30
2022-11-05T23:38:41.556Z,78.30
2022-11-05T23:41:26.994Z,78.40
2022-11-05T23:44:12.461Z,78.30
2022-11-05T23:46:58.004Z,78.40
2022-11-05T23:49:24.866Z,78.50
2022-11-05T23:51:51.547Z,78.50
2022-11-05T23:54:21.135Z,78.40
2022-11-05T23:56:47.812Z,78.50
2022-11-05T23:59:14.530Z,78.60
